createdAt,value
2023-02-13T00:01:31.446Z,103107.41
2023-02-13T00:04:03.156Z,103111.59
2023-02-13T00:06:34.725Z,103109.50
2023-02-13T00:09:07.413Z,103117.47
2023-02-13T00:11:39.016Z,103113.97
2023-02-13T00:14:10.721Z,103111.91
2023-02-13T00:16:42.260Z,103114.69
2023-02-13T00:19:13.838Z,103116.22
2023-02-13T00:21:45.360Z,103122.09
2023-02-13T00:24:16.905Z,103114.66
2023-02-13T00:26:48.399Z,103107.13
2023-02-13T00:29:19.979Z,103108.09
2023-02-13T00:31:51.705Z,103112.31
2023-02-13T00:34:23.261Z,103121.09
2023-02-13T00:36:54.781Z,103118.75
2023-02-13T00:39:26.749Z,103118.31
2023-02-13T00:41:58.281Z,103120.25
2023-02-13T00:44:30.160Z,103122.78
2023-02-13T00:47:01.731Z,103123.91
2023-02-13T00:49:33.775Z,103118.88
2023-02-13T00:52:05.294Z,103117.19
2023-02-13T00:54:37.324Z,103120.13
2023-02-13T00:57:08.867Z,103119.16
2023-02-13T00:59:40.652Z,103113.00
2023-02-13T01:02:12.194Z,103116.91
2023-02-13T01:04:44.037Z,103125.44
2023-02-13T01:07:16.674Z,103119.72
2023-02-13T01:09:48.480Z,103118.03
2023-02-13T01:12:20.008Z,103122.50
2023-02-13T01:14:52.853Z,103118.88
2023-02-13T01:17:24.358Z,103120.56
2023-02-13T01:19:56.306Z,103114.53
2023-02-13T01:22:27.876Z,103120.28
2023-02-13T01:24:59.625Z,103117.34
2023-02-13T01:27:31.841Z,103120.00
2023-02-13T01:30:03.829Z,103121.53
2023-02-13T01:32:35.397Z,103121.94
2023-02-13T01:35:07.424Z,103121.94
2023-02-13T01:37:39.490Z,103117.06
2023-02-13T01:40:11.405Z,103109.09
2023-02-13T01:42:42.977Z,103120.53
2023-02-13T01:45:14.542Z,103116.09
2023-02-13T01:47:46.060Z,103115.81
2023-02-13T01:50:17.588Z,103115.25
2023-02-13T01:52:49.094Z,103100.16
2023-02-13T01:55:20.617Z,103104.63
2023-02-13T01:57:52.237Z,103103.38
2023-02-13T02:00:24.213Z,103105.47
2023-02-13T02:02:55.771Z,103105.47
2023-02-13T02:05:27.715Z,103104.63
2023-02-13T02:07:59.246Z,103102.53
2023-02-13T02:10:32.862Z,103106.31
2023-02-13T02:13:04.399Z,103110.22
2023-02-13T02:15:35.920Z,103107.56
2023-02-13T02:18:07.777Z,102835.91
2023-02-13T02:20:39.293Z,103113.44
2023-02-13T02:23:11.181Z,103112.19
2023-02-13T02:25:42.705Z,103111.06
2023-02-13T02:28:14.255Z,103112.56
2023-02-13T02:30:45.869Z,103119.25
2023-02-13T02:33:17.448Z,103119.81
2023-02-13T02:35:48.958Z,103116.59
2023-02-13T02:38:20.493Z,103119.53
2023-02-13T02:40:52.024Z,103121.38
2023-02-13T02:43:23.912Z,103119.13
2023-02-13T02:45:55.432Z,103118.84
2023-02-13T02:48:46.117Z,103120.25
2023-02-13T02:51:17.618Z,103113.25
2023-02-13T02:53:49.429Z,103119.81
2023-02-13T02:56:20.928Z,103119.69
2023-02-13T02:59:11.443Z,103120.78
2023-02-13T03:02:01.610Z,103115.06
2023-02-13T03:04:52.014Z,103119.25
2023-02-13T03:07:23.526Z,103120.66
2023-02-13T03:10:13.740Z,103115.34
2023-02-13T03:13:04.025Z,103117.16
2023-02-13T03:15:35.850Z,103123.31
2023-02-13T03:18:26.468Z,103126.25
2023-02-13T03:21:16.640Z,103123.03
2023-02-13T03:23:48.491Z,103122.19
2023-02-13T03:26:19.966Z,103117.16
2023-02-13T03:29:10.258Z,103117.72
2023-02-13T03:31:41.773Z,103121.91
2023-02-13T03:34:13.650Z,103120.94
2023-02-13T03:37:04.055Z,103116.88
2023-02-13T03:39:35.901Z,103119.25
2023-02-13T03:42:07.381Z,103122.19
2023-02-13T03:44:39.254Z,103126.38
2023-02-13T03:47:10.765Z,103120.22
2023-02-13T03:50:01.323Z,103119.94
2023-02-13T03:52:32.819Z,103111.84
2023-02-13T03:55:23.348Z,103118.25
2023-02-13T03:58:13.544Z,103119.66
2023-02-13T04:00:45.372Z,103113.25
2023-02-13T04:03:16.900Z,103111.84
2023-02-13T04:05:48.729Z,103106.81
2023-02-13T04:08:20.227Z,103102.34
2023-02-13T04:10:52.137Z,103108.78
2023-02-13T04:13:23.617Z,103109.63
2023-02-13T04:15:55.567Z,103101.50
2023-02-13T04:18:27.058Z,103099.97
2023-02-13T04:20:58.941Z,103107.50
2023-02-13T04:23:30.732Z,103108.47
2023-02-13T04:26:02.685Z,103111.16
2023-02-13T04:28:34.252Z,103117.16
2023-02-13T04:31:06.399Z,103107.94
2023-02-13T04:33:38.062Z,103112.28
2023-02-13T04:36:09.585Z,103106.25
2023-02-13T04:38:41.056Z,103105.28
2023-02-13T04:41:12.863Z,103096.22
2023-02-13T04:43:44.473Z,103099.44
2023-02-13T04:46:15.993Z,103093.28
2023-02-13T04:48:47.475Z,103093.44
2023-02-13T04:51:19.005Z,103086.03
2023-02-13T04:53:50.484Z,103087.13
2023-02-13T04:56:22.274Z,103091.06
2023-02-13T04:58:53.754Z,103090.63
2023-02-13T05:01:25.674Z,103095.94
2023-02-13T05:03:57.545Z,103089.66
2023-02-13T05:06:29.039Z,103086.59
2023-02-13T05:09:00.741Z,103093.41
2023-02-13T05:11:32.240Z,103094.25
2023-02-13T05:14:04.104Z,103098.16
2023-02-13T05:16:35.744Z,103091.75
2023-02-13T05:19:07.505Z,103091.47
2023-02-13T05:21:57.979Z,103097.34
2023-02-13T05:24:29.854Z,103103.06
2023-02-13T05:27:01.415Z,103106.00
2023-02-13T05:29:32.956Z,103097.63
2023-02-13T05:32:04.558Z,103100.97
2023-02-13T05:34:36.461Z,103102.50
2023-02-13T05:37:07.960Z,103102.34
2023-02-13T05:39:39.500Z,103097.34
2023-02-13T05:42:11.037Z,103106.28
2023-02-13T05:44:42.935Z,103103.63
2023-02-13T05:47:14.481Z,103109.34
2023-02-13T05:49:46.006Z,103115.75
2023-02-13T05:52:17.503Z,103115.47
2023-02-13T05:54:49.433Z,103124.13
2023-02-13T05:57:20.906Z,103117.44
2023-02-13T05:59:52.764Z,103115.19
2023-02-13T06:02:24.317Z,103119.94
2023-02-13T06:04:56.178Z,103121.75
2023-02-13T06:07:27.699Z,103121.88
2023-02-13T06:09:59.819Z,103126.91
2023-02-13T06:12:31.281Z,103135.56
2023-02-13T06:15:03.118Z,103125.78
2023-02-13T06:17:34.622Z,103140.03
2023-02-13T06:20:06.417Z,103134.03
2023-02-13T06:22:37.892Z,103134.03
2023-02-13T06:25:09.774Z,103135.28
2023-02-13T06:27:41.266Z,103139.72
2023-02-13T06:30:13.048Z,103135.97
2023-02-13T06:32:44.565Z,103132.72
2023-02-13T06:35:16.088Z,103129.78
2023-02-13T06:37:48.666Z,103132.44
2023-02-13T06:40:20.267Z,103141.66
2023-02-13T06:42:51.739Z,103139.47
2023-02-13T06:45:23.244Z,103144.84
2023-02-13T06:47:54.767Z,103144.16
2023-02-13T06:50:26.822Z,103141.06
2023-02-13T06:52:58.354Z,103138.84
2023-02-13T06:55:29.908Z,103141.34
2023-02-13T06:58:01.374Z,103151.53
2023-02-13T07:00:33.006Z,103147.38
2023-02-13T07:03:04.680Z,103150.84
2023-02-13T07:05:36.236Z,103151.41
2023-02-13T07:08:07.755Z,103150.25
2023-02-13T07:10:39.323Z,103158.22
2023-02-13T07:13:11.060Z,103149.31
2023-02-13T07:15:42.664Z,103146.94
2023-02-13T07:18:14.159Z,103146.94
2023-02-13T07:20:46.041Z,103163.19
2023-02-13T07:23:17.533Z,103158.03
2023-02-13T07:25:49.350Z,103147.28
2023-02-13T07:28:20.849Z,103153.63
2023-02-13T07:30:52.434Z,103156.22
2023-02-13T07:33:27.821Z,103157.19
2023-02-13T07:35:59.321Z,103158.72
2023-02-13T07:38:30.830Z,103155.66
2023-02-13T07:41:02.337Z,103162.66
2023-02-13T07:43:33.802Z,103165.03
2023-02-13T07:46:05.743Z,103160.56
2023-02-13T07:48:37.247Z,103169.50
2023-02-13T07:51:08.736Z,103160.00
2023-02-13T07:53:40.233Z,103160.97
2023-02-13T07:59:08.652Z,103161.56
2023-02-13T08:07:52.267Z,103173.06
2023-02-13T08:10:43.186Z,103173.91
2023-02-13T08:13:17.372Z,103169.28
2023-02-13T08:16:04.040Z,103176.81
2023-02-13T08:18:35.627Z,103181.56
2023-02-13T08:27:26.979Z,103180.31
2023-02-13T08:39:28.986Z,103185.53
2023-02-13T08:42:04.901Z,103180.75
2023-02-13T08:44:37.371Z,103178.13
2023-02-13T08:47:14.194Z,103181.16
2023-02-13T08:49:48.891Z,103183.13
2023-02-13T08:55:38.202Z,103180.22
2023-02-13T09:04:36.783Z,103177.25
2023-02-13T09:07:11.265Z,103065.38
2023-02-13T09:10:10.517Z,103179.63
2023-02-13T09:19:35.320Z,103067.75
2023-02-13T09:22:24.028Z,103171.97
2023-02-13T09:31:04.746Z,103189.00
2023-02-13T09:33:51.952Z,103189.69
2023-02-13T09:36:30.898Z,103190.41
2023-02-13T09:39:13.585Z,103190.78
2023-02-13T09:45:24.809Z,103197.19
2023-02-13T09:47:56.318Z,103197.28
2023-02-13T09:50:27.978Z,103197.03
2023-02-13T09:52:59.596Z,103197.59
2023-02-13T09:55:31.120Z,103183.06
2023-02-13T09:58:02.643Z,103192.41
2023-02-13T10:00:34.186Z,103190.22
2023-02-13T10:03:05.679Z,103186.41
2023-02-13T10:05:37.535Z,103184.88
2023-02-13T10:08:09.160Z,103188.03
2023-02-13T10:10:40.666Z,103176.47
2023-02-13T10:13:12.161Z,103178.28
2023-02-13T10:15:43.707Z,103181.09
2023-02-13T10:18:15.218Z,103177.75
2023-02-13T10:20:47.121Z,103190.88
2023-02-13T10:23:18.649Z,103182.31
2023-02-13T10:25:50.216Z,103075.22
2023-02-13T10:28:21.761Z,103183.69
2023-02-13T10:30:53.546Z,103187.47
2023-02-13T10:33:25.163Z,103180.16
2023-02-13T10:35:56.929Z,103188.16
2023-02-13T10:38:28.567Z,103189.31
2023-02-13T10:41:00.117Z,103180.75
2023-02-13T10:43:31.638Z,103181.78
2023-02-13T10:46:03.346Z,103179.59
2023-02-13T10:48:34.967Z,103181.16
2023-02-13T10:51:06.803Z,103179.44
2023-02-13T10:53:38.305Z,103174.09
2023-02-13T10:56:10.094Z,103167.16
2023-02-13T10:58:41.657Z,103166.78
2023-02-13T11:01:13.191Z,103163.47
2023-02-13T11:03:47.843Z,103160.56
2023-02-13T11:06:20.215Z,103156.97
2023-02-13T11:08:51.715Z,103152.78
2023-02-13T11:11:23.217Z,103160.56
2023-02-13T11:13:54.706Z,103152.47
2023-02-13T11:16:26.540Z,103154.16
2023-02-13T11:18:58.064Z,103157.34
2023-02-13T11:21:29.922Z,103150.44
2023-02-13T11:24:01.402Z,103154.31
2023-02-13T11:26:33.545Z,103150.19
2023-02-13T11:29:05.106Z,103155.41
2023-02-13T11:31:37.314Z,103149.50
2023-02-13T11:34:08.924Z,103149.47
2023-02-13T11:36:40.761Z,103152.66
2023-02-13T11:39:12.266Z,103147.09
2023-02-13T11:41:43.772Z,103140.28
2023-02-13T11:44:15.267Z,103142.78
2023-02-13T11:46:46.898Z,103139.22
2023-02-13T11:49:18.415Z,103135.56
2023-02-13T11:51:50.421Z,103138.75
2023-02-13T11:54:21.899Z,103130.72
2023-02-13T11:57:08.560Z,103133.97
2023-02-13T11:59:40.142Z,103133.53
2023-02-13T12:02:11.762Z,103134.34
2023-02-13T12:07:35.270Z,103131.41
2023-02-13T12:10:06.767Z,103129.34
2023-02-13T12:12:38.842Z,103133.34
2023-02-13T12:15:10.350Z,103123.06
2023-02-13T12:17:42.157Z,103129.91
2023-02-13T12:20:14.488Z,103136.00
2023-02-13T12:22:46.421Z,103127.78
2023-02-13T12:25:17.907Z,103133.34
2023-02-13T12:27:49.884Z,103134.50
2023-02-13T12:30:21.717Z,103124.19
2023-02-13T12:32:53.319Z,103132.72
2023-02-13T12:38:34.619Z,103137.50
2023-02-13T12:41:06.123Z,103127.53
2023-02-13T12:43:37.596Z,103129.53
2023-02-13T12:46:09.457Z,103129.84
2023-02-13T12:48:40.987Z,103120.72
2023-02-13T12:51:12.482Z,103130.38
2023-02-13T12:53:43.966Z,103132.41
2023-02-13T12:56:15.475Z,103132.56
2023-02-13T12:58:47.032Z,103125.88
2023-02-13T13:01:18.708Z,103125.56
2023-02-13T13:03:50.256Z,103124.88
2023-02-13T13:06:22.593Z,103124.13
2023-02-13T13:08:54.108Z,103124.66
2023-02-13T13:11:25.661Z,103117.38
2023-02-13T13:13:58.892Z,103124.66
2023-02-13T13:16:30.740Z,103118.72
2023-02-13T13:19:02.325Z,103109.41
2023-02-13T13:21:34.126Z,103120.09
2023-02-13T13:24:05.609Z,103114.53
2023-02-13T13:26:37.580Z,103116.31
2023-02-13T13:29:09.124Z,103126.63
2023-02-13T13:31:40.812Z,103126.81
2023-02-13T13:34:12.452Z,103129.41
2023-02-13T13:36:43.955Z,103125.34
2023-02-13T13:39:15.452Z,103120.72
2023-02-13T13:41:47.305Z,103123.81
2023-02-13T13:44:18.845Z,103118.50
2023-02-13T13:46:50.832Z,103119.34
2023-02-13T13:49:22.310Z,103112.13
2023-02-13T13:51:54.358Z,103120.19
2023-02-13T13:54:25.864Z,103113.03
2023-02-13T13:57:01.928Z,103112.69
2023-02-13T13:59:33.473Z,103116.84
2023-02-13T14:02:05.056Z,103125.69
2023-02-13T14:04:36.711Z,103116.34
2023-02-13T14:07:08.337Z,103112.97
2023-02-13T14:09:39.868Z,103105.44
2023-02-13T14:12:11.392Z,103098.25
2023-02-13T14:14:42.896Z,103095.44
2023-02-13T14:17:14.465Z,103101.44
2023-02-13T14:19:45.954Z,103095.50
2023-02-13T14:22:17.441Z,103090.25
2023-02-13T14:24:48.974Z,103089.97
2023-02-13T14:27:20.592Z,103087.91
2023-02-13T14:29:52.096Z,103090.31
2023-02-13T14:32:23.633Z,103082.13
2023-02-13T14:34:55.176Z,103075.00
2023-02-13T14:37:34.904Z,103073.09
2023-02-13T14:40:06.385Z,103074.22
2023-02-13T14:42:38.195Z,103084.19
2023-02-13T14:45:09.717Z,103078.09
2023-02-13T14:47:42.997Z,103069.59
2023-02-13T14:50:14.500Z,103070.31
2023-02-13T14:52:46.290Z,103072.97
2023-02-13T14:55:17.806Z,103070.00
2023-02-13T14:57:49.318Z,103066.28
2023-02-13T15:00:20.844Z,103070.16
2023-02-13T15:02:52.368Z,103062.78
2023-02-13T15:05:23.849Z,103064.75
2023-02-13T15:07:55.428Z,103054.13
2023-02-13T15:10:27.167Z,103060.81
2023-02-13T15:12:59.041Z,103064.06
2023-02-13T15:15:30.901Z,103062.78
2023-02-13T15:18:02.766Z,103061.97
2023-02-13T15:20:34.256Z,103064.31
2023-02-13T15:23:09.891Z,103065.75
2023-02-13T15:25:41.364Z,103054.63
2023-02-13T15:28:12.871Z,103043.59
2023-02-13T15:30:44.360Z,103038.44
2023-02-13T15:33:15.881Z,103040.84
2023-02-13T15:35:47.424Z,103038.88
2023-02-13T15:38:18.975Z,103035.34
2023-02-13T15:40:50.517Z,103037.59
2023-02-13T15:43:22.521Z,103029.78
2023-02-13T15:45:54.059Z,103029.63
2023-02-13T15:48:25.714Z,103029.94
2023-02-13T15:50:57.443Z,103027.56
2023-02-13T15:53:30.302Z,103019.63
2023-02-13T15:56:01.839Z,103023.78
2023-02-13T15:58:33.510Z,103033.72
2023-02-13T16:01:05.116Z,103032.72
2023-02-13T16:03:36.961Z,103022.94
2023-02-13T16:06:08.453Z,103019.34
2023-02-13T16:08:44.228Z,103025.22
2023-02-13T16:11:15.784Z,103031.09
2023-02-13T16:13:48.576Z,103029.25
2023-02-13T16:16:20.262Z,103031.06
2023-02-13T16:18:52.029Z,103047.56
2023-02-13T16:21:23.573Z,103037.66
2023-02-13T16:23:55.048Z,103022.28
2023-02-13T16:26:26.557Z,103031.09
2023-02-13T16:28:58.354Z,103047.00
2023-02-13T16:31:29.928Z,103064.50
2023-02-13T16:34:02.727Z,103046.19
2023-02-13T16:36:34.282Z,103045.34
2023-02-13T16:39:06.059Z,103040.19
2023-02-13T16:41:37.547Z,103046.47
2023-02-13T16:44:09.378Z,103051.78
2023-02-13T16:46:40.901Z,103046.75
2023-02-13T16:49:12.591Z,103046.75
2023-02-13T16:51:44.143Z,103038.53
2023-02-13T16:54:15.707Z,103034.47
2023-02-13T16:56:47.243Z,103032.53
2023-02-13T16:59:19.915Z,103033.97
2023-02-13T17:01:51.469Z,103037.56
2023-02-13T17:04:23.431Z,103039.81
2023-02-13T17:06:55.224Z,103045.28
2023-02-13T17:09:27.073Z,103050.13
2023-02-13T17:11:58.618Z,103056.28
2023-02-13T17:14:30.391Z,103057.41
2023-02-13T17:17:01.903Z,103057.13
2023-02-13T17:19:33.602Z,103063.16
2023-02-13T17:22:05.446Z,103064.94
2023-02-13T17:24:37.419Z,103070.81
2023-02-13T17:27:08.973Z,103071.38
2023-02-13T17:29:40.903Z,103070.00
2023-02-13T17:32:12.591Z,103064.25
2023-02-13T17:34:46.834Z,103061.88
2023-02-13T17:37:18.650Z,103062.72
2023-02-13T17:39:50.204Z,103066.22
2023-02-13T17:42:21.725Z,103056.28
2023-02-13T17:44:53.205Z,103058.09
2023-02-13T17:50:17.651Z,103060.06
2023-02-13T17:52:49.959Z,103058.25
2023-02-13T17:55:21.553Z,103056.44
2023-02-13T17:57:53.384Z,103075.44
2023-02-13T18:00:24.862Z,103069.41
2023-02-13T18:02:56.631Z,103065.06
2023-02-13T18:05:28.250Z,103064.38
2023-02-13T18:08:02.209Z,103068.03
2023-02-13T18:10:33.693Z,103071.38
2023-02-13T18:13:05.660Z,103053.78
2023-02-13T18:15:37.209Z,103059.66
2023-02-13T18:18:09.207Z,103067.47
2023-02-13T18:20:40.766Z,103066.50
2023-02-13T18:23:13.874Z,103066.66
2023-02-13T18:25:45.461Z,103065.53
2023-02-13T18:28:16.943Z,103063.00
2023-02-13T18:30:48.580Z,103073.34
2023-02-13T18:33:20.120Z,103074.03
2023-02-13T18:35:51.684Z,103072.94
2023-02-13T18:38:23.521Z,103066.66
2023-02-13T18:40:55.038Z,103068.75
2023-02-13T18:43:26.727Z,103075.31
2023-02-13T18:45:58.272Z,103071.69
2023-02-13T18:48:31.327Z,103075.44
2023-02-13T18:51:02.860Z,103069.59
2023-02-13T18:53:34.718Z,103063.72
2023-02-13T18:56:06.335Z,103055.78
2023-02-13T18:58:38.164Z,103059.66
2023-02-13T19:01:09.878Z,103058.25
2023-02-13T19:03:41.624Z,103063.13
2023-02-13T19:06:13.153Z,103059.66
2023-02-13T19:08:45.123Z,103066.78
2023-02-13T19:11:16.634Z,103055.47
2023-02-13T19:13:48.397Z,103062.31
2023-02-13T19:16:19.909Z,103051.69
2023-02-13T19:18:53.592Z,103053.78
2023-02-13T19:21:25.094Z,103048.91
2023-02-13T19:23:56.729Z,103058.97
2023-02-13T19:26:28.256Z,103060.78
2023-02-13T19:29:00.113Z,103058.41
2023-02-13T19:31:31.678Z,103058.69
2023-02-13T19:34:08.015Z,103066.78
2023-02-13T19:36:39.859Z,103068.88
2023-02-13T19:39:11.715Z,103071.25
2023-02-13T19:41:44.146Z,103066.34
2023-02-13T19:44:15.995Z,103078.22
2023-02-13T19:46:47.571Z,103080.31
2023-02-13T19:49:21.007Z,102960.63
2023-02-13T19:51:54.962Z,103085.34
2023-02-13T19:54:26.544Z,103080.44
2023-02-13T19:57:01.460Z,103083.25
2023-02-13T19:59:33.301Z,103081.56
2023-02-13T20:02:04.857Z,103091.47
2023-02-13T20:04:36.816Z,103082.25
2023-02-13T20:07:08.462Z,103088.38
2023-02-13T20:09:40.557Z,102832.81
2023-02-13T20:12:12.081Z,103085.75
2023-02-13T20:14:43.944Z,103082.81
2023-02-13T20:17:15.435Z,103088.53
2023-02-13T20:19:47.938Z,103084.63
2023-02-13T20:22:19.505Z,103092.03
2023-02-13T20:24:51.384Z,103098.16
2023-02-13T20:27:22.893Z,103095.38
2023-02-13T20:29:59.113Z,103095.22
2023-02-13T20:32:38.993Z,103099.69
2023-02-13T20:35:10.808Z,103101.22
2023-02-13T20:37:42.870Z,103099.00
2023-02-13T20:40:14.442Z,103104.31
2023-02-13T20:42:45.946Z,103106.69
2023-02-13T20:45:17.540Z,103113.22
2023-02-13T20:47:49.696Z,103114.56
2023-02-13T20:50:21.443Z,103107.38
2023-02-13T20:52:52.992Z,103121.19
2023-02-13T20:55:25.018Z,103112.94
2023-02-13T20:57:56.523Z,103118.41
2023-02-13T21:00:28.411Z,103123.00
2023-02-13T21:03:00.145Z,103127.03
2023-02-13T21:05:32.060Z,103128.41
2023-02-13T21:08:03.635Z,103128.41
2023-02-13T21:10:35.499Z,103126.03
2023-02-13T21:13:07.005Z,103133.00
2023-02-13T21:15:38.801Z,103129.91
2023-02-13T21:18:10.422Z,103132.97
2023-02-13T21:20:42.286Z,103134.59
2023-02-13T21:23:13.783Z,103137.28
2023-02-13T21:25:45.702Z,103139.50
2023-02-13T21:28:17.226Z,103138.25
2023-02-13T21:30:49.140Z,103138.94
2023-02-13T21:33:20.657Z,103142.44
2023-02-13T21:35:52.514Z,103142.44
2023-02-13T21:38:24.331Z,103139.09
2023-02-13T21:40:56.480Z,103141.59
2023-02-13T21:43:28.162Z,103134.75
2023-02-13T21:46:00.067Z,103137.28
2023-02-13T21:48:31.655Z,103132.78
2023-02-13T21:51:03.575Z,103140.09
2023-02-13T21:53:35.097Z,103133.19
2023-02-13T21:56:06.900Z,103132.59
2023-02-13T21:58:38.406Z,103136.19
2023-02-13T22:01:17.438Z,103135.84
2023-02-13T22:03:59.966Z,103005.28
2023-02-13T22:06:31.968Z,103131.81
2023-02-13T22:09:03.504Z,103133.75
2023-02-13T22:11:35.036Z,103136.53
2023-02-13T22:14:07.890Z,103132.78
2023-02-13T22:16:39.526Z,103134.06
2023-02-13T22:19:11.113Z,103138.25
2023-02-13T22:21:42.636Z,103141.47
2023-02-13T22:24:14.197Z,103148.56
2023-02-13T22:26:45.724Z,103142.13
2023-02-13T22:29:18.516Z,103150.53
2023-02-13T22:31:50.329Z,103148.41
2023-02-13T22:34:22.166Z,103149.38
2023-02-13T22:36:53.699Z,103151.84
2023-02-13T22:39:25.610Z,103150.41
2023-02-13T22:41:57.125Z,103154.63
2023-02-13T22:44:28.910Z,103155.22
2023-02-13T22:47:00.459Z,103155.94
2023-02-13T22:49:32.269Z,103159.53
2023-02-13T22:52:03.820Z,103153.53
2023-02-13T22:54:35.620Z,103156.56
2023-02-13T22:57:07.192Z,103153.72
2023-02-13T22:59:40.269Z,103160.44
2023-02-13T23:02:11.988Z,103158.38
2023-02-13T23:04:44.116Z,103153.19
2023-02-13T23:07:18.252Z,103155.44
2023-02-13T23:09:50.067Z,103156.19
2023-02-13T23:12:37.070Z,103149.84
2023-02-13T23:15:08.817Z,103150.41
2023-02-13T23:17:59.120Z,103152.56
2023-02-13T23:20:30.634Z,103148.25
2023-02-13T23:23:04.752Z,103145.09
2023-02-13T23:25:36.722Z,103150.38
2023-02-13T23:28:08.307Z,103149.81
2023-02-13T23:30:40.090Z,103150.06
2023-02-13T23:33:11.629Z,103154.97
2023-02-13T23:35:43.607Z,103153.69
2023-02-13T23:38:15.112Z,103161.19
2023-02-13T23:40:46.983Z,103077.75
2023-02-13T23:43:18.504Z,103163.13
2023-02-13T23:45:50.446Z,103160.03
2023-02-13T23:48:22.000Z,103160.94
2023-02-13T23:50:53.956Z,103158.16
2023-02-13T23:53:25.635Z,103158.84
2023-02-13T23:55:57.541Z,103165.25
2023-02-13T23:58:29.063Z,103158.16
